Przemysl, Poland

8:15 PM CET on December 03, 2016 (GMT +0100)
IWOJ.POD1 | | Change Station

Elev 659 ft 49.78 °N, 22.77 °E | Updated 4 minutes ago

Partly Cloudy
Partly Cloudy
35.6 °F
Feels Like 30 °F
N
6.5
Wind Variable Wind from WSW
Gusts 6.5 mph

Today
High -- | Low -- °F
--% Chance of Precip.
Yesterday
High -- | Low -- °F
Precip. -- in
Pressure 30.21 in
Visibility 6.2 miles
Clouds Few 2500 ft
Windchill 30 °F
Dew Point 32 °F
Humidity 74%
Rainfall Not available.
Snow Depth Not available.
7:07 AM 3:29 PM
Waxing Crescent, 16% visible
METAR EPRZ 031900Z 27012KT 9999 FEW025 M01/M04 Q1023 R27/2///95
Pressure 30.21 in
Visibility 6.2 miles
Clouds Few 2500 ft
Windchill 30 °F
Dew Point 32 °F
Humidity 74%
Rainfall Not available.
Snow Depth Not available.
7:07 AM 3:29 PM
Waxing Crescent, 16% visible
METAR EPRZ 031900Z 27012KT 9999 FEW025 M01/M04 Q1023 R27/2///95

10-Day Weather Forecast

×

Almanac

Astronomy

Dec. 03, 2016 Rise Set
Actual Time
Civil Twilight
Nautical Twilight
Astronomical Twilight
Moon
Length of Visible Light
Length of Day
Tomorrow will be .
, % of the Moon is Illuminated

Today's Extremes

Country Highs Country Lows

Community

WunderPhotos

Upload Photos

1,955,472 photos uploaded!

WunderBlog® & News

Nearby

Air Quality

  Air Quality AQ Index Pollutant
Not available.

Snow Depth

Station Depth Elevation

Earthquake Activity

City Distance Mag. Time & Date
Minimum magnitude displayed is 2.5.

Coastal Water Temperatures

Place Temperature

Stations

Nearby Weather Stations

Station Location Temp. Windchill Dew Point Humidity Wind Precip. Elev Updated Type